地図

経路データ

SID SEASON NUMBER BASIN SUBBASIN NAME ISO_TIME NATURE LAT LON WMO_WIND WMO_PRES WMO_AGENCY TRACK_TYPE DIST2LAND LANDFALL IFLAG USA_AGENCY USA_ATCF_ID USA_LAT USA_LON USA_RECORD USA_STATUS USA_WIND USA_PRES USA_SSHS USA_R34_NE USA_R34_SE USA_R34_SW USA_R34_NW USA_R50_NE USA_R50_SE USA_R50_SW USA_R50_NW USA_R64_NE USA_R64_SE USA_R64_SW USA_R64_NW USA_POCI USA_ROCI USA_RMW USA_EYE TOKYO_LAT TOKYO_LON TOKYO_GRADE TOKYO_WIND TOKYO_PRES TOKYO_R50_DIR TOKYO_R50_LONG TOKYO_R50_SHORT TOKYO_R30_DIR TOKYO_R30_LONG TOKYO_R30_SHORT TOKYO_LAND CMA_LAT CMA_LON CMA_CAT CMA_WIND CMA_PRES HKO_LAT HKO_LON HKO_CAT HKO_WIND HKO_PRES NEWDELHI_LAT NEWDELHI_LON NEWDELHI_GRADE NEWDELHI_WIND NEWDELHI_PRES NEWDELHI_CI NEWDELHI_DP NEWDELHI_POCI REUNION_LAT REUNION_LON REUNION_TYPE REUNION_WIND REUNION_PRES REUNION_TNUM REUNION_CI REUNION_RMW REUNION_R34_NE REUNION_R34_SE REUNION_R34_SW REUNION_R34_NW REUNION_R50_NE REUNION_R50_SE REUNION_R50_SW REUNION_R50_NW REUNION_R64_NE REUNION_R64_SE REUNION_R64_SW REUNION_R64_NW BOM_LAT BOM_LON BOM_TYPE BOM_WIND BOM_PRES BOM_TNUM BOM_CI BOM_RMW BOM_R34_NE BOM_R34_SE BOM_R34_SW BOM_R34_NW BOM_R50_NE BOM_R50_SE BOM_R50_SW BOM_R50_NW BOM_R64_NE BOM_R64_SE BOM_R64_SW BOM_R64_NW BOM_ROCI BOM_POCI BOM_EYE BOM_POS_METHOD BOM_PRES_METHOD NADI_LAT NADI_LON NADI_CAT NADI_WIND NADI_PRES WELLINGTON_LAT WELLINGTON_LON WELLINGTON_WIND WELLINGTON_PRES DS824_LAT DS824_LON DS824_STAGE DS824_WIND DS824_PRES TD9636_LAT TD9636_LON TD9636_STAGE TD9636_WIND TD9636_PRES TD9635_LAT TD9635_LON TD9635_WIND TD9635_PRES TD9635_ROCI NEUMANN_LAT NEUMANN_LON NEUMANN_CLASS NEUMANN_WIND NEUMANN_PRES MLC_LAT MLC_LON MLC_CLASS MLC_WIND MLC_PRES USA_GUST BOM_GUST BOM_GUST_PER REUNION_GUST REUNION_GUST_PER USA_SEAHGT USA_SEARAD_NE USA_SEARAD_SE USA_SEARAD_SW USA_SEARAD_NW STORM_SPEED STORM_DIR
1967266N11345 1967 106 NA NA NOT_NAMED 1967-09-22 12:00:00 TS 10.8000 -15.0000 hurdat_atl main 15 11 O_____________ hurdat_atl AL161967 10.8000 -15.0000 TD -1 12 276
1967266N11345 1967 106 NA NA NOT_NAMED 1967-09-22 15:00:00 TS 10.8627 -15.5924 main 40 40 P_____________ AL161967 10.8627 -15.5924 TD -1 12 275
1967266N11345 1967 106 NA NA NOT_NAMED 1967-09-22 18:00:00 TS 10.9000 -16.2000 hurdat_atl main 88 88 O_____________ hurdat_atl AL161967 10.9000 -16.2000 TD -1 12 272
1967266N11345 1967 106 NA NA NOT_NAMED 1967-09-22 21:00:00 TS 10.8999 -16.8351 main 125 125 P_____________ AL161967 10.8999 -16.8351 TD -1 13 270
1967266N11345 1967 106 NA NA NOT_NAMED 1967-09-23 00:00:00 TS 10.9000 -17.5000 hurdat_atl main 179 179 O_____________ hurdat_atl AL161967 10.9000 -17.5000 TD -1 13 272
1967266N11345 1967 106 NA NA NOT_NAMED 1967-09-23 03:00:00 TS 10.9499 -18.1924 main 226 218 P_____________ AL161967 10.9499 -18.1924 TD -1 14 274
1967266N11345 1967 106 NA NA NOT_NAMED 1967-09-23 06:00:00 TS 11.0000 -18.9000 hurdat_atl main 277 277 O_____________ hurdat_atl AL161967 11.0000 -18.9000 TD -1 15 272
1967266N11345 1967 106 NA NA NOT_NAMED 1967-09-23 09:00:00 TS 11.0003 -19.7050 main 352 352 P_____________ AL161967 11.0003 -19.7050 TD -1 14 270
1967266N11345 1967 106 NA NA NOT_NAMED 1967-09-23 12:00:00 TS 11.0000 -20.3000 hurdat_atl main 412 402 O_____________ hurdat_atl AL161967 11.0000 -20.3000 TD -1 5 274
1967266N11345 1967 106 NA NA NOT_NAMED 1967-09-23 15:00:00 TS 11.0339 -20.2103 main 402 397 P_____________ AL161967 11.0339 -20.2103 TD -1 1 0
1967266N11345 1967 106 NA NA NOT_NAMED 1967-09-23 18:00:00 TS 11.1000 -20.3000 hurdat_atl main 408 408 O_____________ hurdat_atl AL161967 11.1000 -20.3000 TD -1 13 277
1967266N11345 1967 106 NA NA NOT_NAMED 1967-09-23 21:00:00 TS 11.1873 -21.5173 main 529 529 P_____________ AL161967 11.1873 -21.5173 TD -1 26 274
1967266N11345 1967 106 NA NA NOT_NAMED 1967-09-24 00:00:00 TS 11.3000 -22.9000 hurdat_atl main 675 675 O_____________ hurdat_atl AL161967 11.3000 -22.9000 TD -1 20 278
1967266N11345 1967 106 NA NA NOT_NAMED 1967-09-24 03:00:00 TS 11.4640 -23.5699 main 747 747 P_____________ AL161967 11.4640 -23.5699 TD -1 11 286
1967266N11345 1967 106 NA NA NOT_NAMED 1967-09-24 06:00:00 TS 11.6000 -24.0000 hurdat_atl main 785 785 O_____________ hurdat_atl AL161967 11.6000 -24.0000 TD -1 9 279
1967266N11345 1967 106 NA NA NOT_NAMED 1967-09-24 09:00:00 TS 11.6148 -24.4927 main 833 833 P_____________ AL161967 11.6148 -24.4927 TD -1 10 270
1967266N11345 1967 106 NA NA NOT_NAMED 1967-09-24 12:00:00 TS 11.6000 -25.0000 hurdat_atl main 883 883 O_____________ hurdat_atl AL161967 11.6000 -25.0000 TD -1 11 272
1967266N11345 1967 106 NA NA NOT_NAMED 1967-09-24 15:00:00 TS 11.6499 -25.5774 main 943 939 P_____________ AL161967 11.6499 -25.5774 TD -1 12 275
1967266N11345 1967 106 NA NA NOT_NAMED 1967-09-24 18:00:00 TS 11.7000 -26.2000 hurdat_atl main 1000 1000 O_____________ hurdat_atl AL161967 11.7000 -26.2000 TD -1 12 272
1967266N11345 1967 106 NA NA NOT_NAMED 1967-09-24 21:00:00 TS 11.6998 -26.8276 main 1061 1061 P_____________ AL161967 11.6998 -26.8276 TD -1 13 270
1967266N11345 1967 106 NA NA NOT_NAMED 1967-09-25 00:00:00 TS 11.7000 -27.5000 hurdat_atl main 1133 1133 O_____________ hurdat_atl AL161967 11.7000 -27.5000 TD -1 14 271
1967266N11345 1967 106 NA NA NOT_NAMED 1967-09-25 03:00:00 TS 11.7352 -28.2725 main 1216 1216 P_____________ AL161967 11.7352 -28.2725 TD -1 15 274
1967266N11345 1967 106 NA NA NOT_NAMED 1967-09-25 06:00:00 TS 11.8000 -29.0000 hurdat_atl main 1286 1286 O_____________ hurdat_atl AL161967 11.8000 -29.0000 TD -1 12 278
1967266N11345 1967 106 NA NA NOT_NAMED 1967-09-25 09:00:00 TS 11.8994 -29.4925 main 1336 1336 P_____________ AL161967 11.8994 -29.4925 TD -1 10 282
1967266N11345 1967 106 NA NA NOT_NAMED 1967-09-25 12:00:00 TS 12.0000 -30.0000 hurdat_atl main 1386 1386 O_____________ hurdat_atl AL161967 12.0000 -30.0000 TD -1 13 278
1967266N11345 1967 106 NA NA NOT_NAMED 1967-09-25 15:00:00 TS 12.0652 -30.7700 main 1468 1468 P_____________ AL161967 12.0652 -30.7700 TD -1 16 274
1967266N11345 1967 106 NA NA NOT_NAMED 1967-09-25 18:00:00 TS 12.1000 -31.6000 hurdat_atl main 1553 1553 O_____________ hurdat_atl AL161967 12.1000 -31.6000 TD -1 15 272
1967266N11345 1967 106 NA NA NOT_NAMED 1967-09-25 21:00:00 TS 12.1146 -32.3075 main 1627 1627 P_____________ AL161967 12.1146 -32.3075 TD -1 14 270
1967266N11345 1967 106 NA NA NOT_NAMED 1967-09-26 00:00:00 TS 12.1000 -33.0000 hurdat_atl main 1702 1702 O_____________ hurdat_atl AL161967 12.1000 -33.0000 TD -1 14 267
1967266N11345 1967 106 NA NA NOT_NAMED 1967-09-26 03:00:00 TS 12.0499 -33.7426 main 1779 1769 P_____________ AL161967 12.0499 -33.7426 TD -1 15 266
1967266N11345 1967 106 NA NA NOT_NAMED 1967-09-26 06:00:00 TS 12.0000 -34.5000 hurdat_atl main 1769 1742 O_____________ hurdat_atl AL161967 12.0000 -34.5000 TD -1 16 268
1967266N11345 1967 106 NA NA NOT_NAMED 1967-09-26 09:00:00 TS 12.0003 -35.3249 main 1742 1721 P_____________ AL161967 12.0003 -35.3249 TD -1 15 270
1967266N11345 1967 106 NA NA NOT_NAMED 1967-09-26 12:00:00 TS 12.0000 -36.0000 hurdat_atl main 1721 1713 O_____________ hurdat_atl AL161967 12.0000 -36.0000 TD -1 10 267
1967266N11345 1967 106 NA NA NOT_NAMED 1967-09-26 15:00:00 TS 11.9496 -36.3250 main 1702 1697 P_____________ AL161967 11.9496 -36.3250 TD -1 5 258
1967266N11345 1967 106 NA NA NOT_NAMED 1967-09-26 18:00:00 TS 11.9000 -36.5000 hurdat_atl main 1697 1693 O_____________ hurdat_atl AL161967 11.9000 -36.5000 TD -1 4 262
1967266N11345 1967 106 NA NA NOT_NAMED 1967-09-26 21:00:00 TS 11.8925 -36.7500 main 1693 1686 P_____________ AL161967 11.8925 -36.7500 TD -1 5 270
1967266N11345 1967 106 NA NA NOT_NAMED 1967-09-27 00:00:00 TS 11.9000 -37.0000 hurdat_atl main 1686 1683 O_____________ hurdat_atl AL161967 11.9000 -37.0000 TD -1 5 271
1967266N11345 1967 106 NA NA NOT_NAMED 1967-09-27 03:00:00 TS 11.9000 -37.2500 main 1683 1677 P_____________ AL161967 11.9000 -37.2500 TD -1 5 270
1967266N11345 1967 106 NA NA NOT_NAMED 1967-09-27 06:00:00 TS 11.9000 -37.5000 hurdat_atl main 1677 1674 O_____________ hurdat_atl AL161967 11.9000 -37.5000 TD -1 5 269
1967266N11345 1967 106 NA NA NOT_NAMED 1967-09-27 09:00:00 TS 11.8924 -37.7350 main 1674 1670 P_____________ AL161967 11.8924 -37.7350 TD -1 5 270
1967266N11345 1967 106 NA NA NOT_NAMED 1967-09-27 12:00:00 TS 11.9000 -38.0000 hurdat_atl main 1670 1665 O_____________ hurdat_atl AL161967 11.9000 -38.0000 TD -1 6 275
1967266N11345 1967 106 NA NA NOT_NAMED 1967-09-27 15:00:00 TS 11.9426 -38.3500 main 1665 1633 P_____________ AL161967 11.9426 -38.3500 TD -1 7 278
1967266N11345 1967 106 NA NA NOT_NAMED 1967-09-27 18:00:00 TS 12.0000 -38.7000 hurdat_atl main 1633 1614 O_____________ hurdat_atl AL161967 12.0000 -38.7000 TD -1 6 278
1967266N11345 1967 106 NA NA NOT_NAMED 1967-09-27 21:00:00 TS 12.0274 -38.9576 main 1605 1592 P_____________ AL161967 12.0274 -38.9576 TD -1 5 282
1967266N11345 1967 106 NA NA NOT_NAMED 1967-09-28 00:00:00 TS 12.1000 -39.2000 hurdat_atl main 1592 1571 O_____________ hurdat_atl AL161967 12.1000 -39.2000 TD -1 6 294
1967266N11345 1967 106 NA NA NOT_NAMED 1967-09-28 03:00:00 TS 12.2701 -39.5224 main 1577 1563 P_____________ AL161967 12.2701 -39.5224 TD -1 7 304
1967266N11345 1967 106 NA NA NOT_NAMED 1967-09-28 06:00:00 TS 12.5000 -39.8000 hurdat_atl main 1563 1560 O_____________ hurdat_atl AL161967 12.5000 -39.8000 TD -1 6 321
1967266N11345 1967 106 NA NA NOT_NAMED 1967-09-28 09:00:00 TS 12.7574 -39.9301 main 1574 1565 P_____________ AL161967 12.7574 -39.9301 TD -1 5 339
1967266N11345 1967 106 NA NA NOT_NAMED 1967-09-28 12:00:00 TS 13.0000 -40.0000 hurdat_atl main 1578 1576 O_____________ hurdat_atl AL161967 13.0000 -40.0000 TD -1 4 337
1967266N11345 1967 106 NA NA NOT_NAMED 1967-09-28 15:00:00 TS 13.1650 -40.1075 main 1583 1575 P_____________ AL161967 13.1650 -40.1075 TD -1 4 327
1967266N11345 1967 106 NA NA NOT_NAMED 1967-09-28 18:00:00 TS 13.3000 -40.2000 hurdat_atl main 1582 1580 O_____________ hurdat_atl AL161967 13.3000 -40.2000 TD -1 3 331
1967266N11345 1967 106 NA NA NOT_NAMED 1967-09-28 21:00:00 TS 13.4350 -40.2575 main 1580 1580 P_____________ AL161967 13.4350 -40.2575 TD -1 3 343
1967266N11345 1967 106 NA NA NOT_NAMED 1967-09-29 00:00:00 TS 13.6000 -40.3000 hurdat_atl main 1595 1595 O_____________ hurdat_atl AL161967 13.6000 -40.3000 TD -1 4 349
1967266N11345 1967 106 NA NA NOT_NAMED 1967-09-29 03:00:00 TS 13.8350 -40.3425 main 1609 1608 P_____________ AL161967 13.8350 -40.3425 TD -1 5 349
1967266N11345 1967 106 NA NA NOT_NAMED 1967-09-29 06:00:00 TS 14.1000 -40.4000 hurdat_atl main 1623 1623 O_____________ hurdat_atl AL161967 14.1000 -40.4000 TD -1 5 346
1967266N11345 1967 106 NA NA NOT_NAMED 1967-09-29 09:00:00 TS 14.3500 -40.4775 main 1630 1630 P_____________ AL161967 14.3500 -40.4775 TD -1 5 339
1967266N11345 1967 106 NA NA NOT_NAMED 1967-09-29 12:00:00 TS 14.6000 -40.6000 hurdat_atl main 1645 1645 O_____________ hurdat_atl AL161967 14.6000 -40.6000 TD -1 6 329
1967266N11345 1967 106 NA NA NOT_NAMED 1967-09-29 15:00:00 TS 14.8575 -40.7924 main 1653 1645 P_____________ AL161967 14.8575 -40.7924 TD -1 6 322
1967266N11345 1967 106 NA NA NOT_NAMED 1967-09-29 18:00:00 TS 15.1000 -41.0000 hurdat_atl main 1653 1653 O_____________ hurdat_atl AL161967 15.1000 -41.0000 TD -1 6 324
1967266N11345 1967 106 NA NA NOT_NAMED 1967-09-29 21:00:00 TS 15.3299 -41.1425 main 1662 1655 P_____________ AL161967 15.3299 -41.1425 TD -1 5 324
1967266N11345 1967 106 NA NA NOT_NAMED 1967-09-30 00:00:00 TS 15.5000 -41.3000 hurdat_atl main 1664 1650 O_____________ hurdat_atl AL161967 15.5000 -41.3000 TD -1 5 299
1967266N11345 1967 106 NA NA NOT_NAMED 1967-09-30 03:00:00 TS 15.5501 -41.5501 main 1651 1637 P_____________ AL161967 15.5501 -41.5501 TD -1 5 282
1967266N11345 1967 106 NA NA NOT_NAMED 1967-09-30 06:00:00 TS 15.6000 -41.8000 hurdat_atl main 1637 1630 O_____________ hurdat_atl AL161967 15.6000 -41.8000 TD -1 5 297
1967266N11345 1967 106 NA NA NOT_NAMED 1967-09-30 09:00:00 TS 15.7625 -41.9749 main 1641 1641 P_____________ AL161967 15.7625 -41.9749 TD -1 5 324
1967266N11345 1967 106 NA NA NOT_NAMED 1967-09-30 12:00:00 TS 16.0000 -42.1000 hurdat_atl main 1651 O_____________ hurdat_atl AL161967 16.0000 -42.1000 TD -1 5 334

IBTrACS Databaseについて

本データベースは、米国NOAAが公開する1842年以降の世界の熱帯低気圧のベストトラックデータアーカイブInternational Best Track Archive for Climate Stewardship (IBTrACS)を、ウェブで閲覧しやすい形式に変換したものです。

最終更新日:2021-10-08